Time;durP1;ratioP1;P1;durP2;ratioP2;P2;SDS_P1;SDS_P2;PMS_P1;PMS_P2;Temp;Humidity;BMP_temperature;BMP_pressure;BME280_temperature;BME280_humidity;BME280_pressure;Samples;Min_cycle;Max_cycle;Signal;HPM_P1;HPM_P2
2024/01/20 00:02:08;;;;;;;41.58;21.77;;;;;;;;;;4997165;28;98692;-67
2024/01/20 00:04:35;;;;;;;35.55;20.35;;;;;;;;;;4996511;28;98515;-67
2024/01/20 00:07:01;;;;;;;43.17;21.23;;;;;;;;;;4995263;28;99400;-67
2024/01/20 00:09:29;;;;;;;39.53;20.83;;;;;;;;;;4998519;28;101096;-67
2024/01/20 00:12:07;;;;;;;40.65;22.23;;;;;;;;;;4999380;28;98649;-67
2024/01/20 00:14:34;;;;;;;47.33;23.40;;;;;;;;;;4992448;28;99287;-67
2024/01/20 00:17:00;;;;;;;40.50;20.45;;;;;;;;;;4996777;28;99946;-67
2024/01/20 00:19:43;;;;;;;42.65;20.92;;;;;;;;;;4989312;28;99964;-67
2024/01/20 00:22:09;;;;;;;49.20;21.95;;;;;;;;;;5002539;28;99214;-67
2024/01/20 00:24:36;;;;;;;43.95;21.58;;;;;;;;;;4999096;28;97763;-68
2024/01/20 00:27:02;;;;;;;51.67;24.73;;;;;;;;;;4997582;28;99056;-67
2024/01/20 00:29:29;;;;;;;42.80;22.77;;;;;;;;;;4996342;28;100028;-67
2024/01/20 00:31:55;;;;;;;58.22;22.52;;;;;;;;;;4993865;28;99316;-67
2024/01/20 00:34:22;;;;;;;53.75;23.20;;;;;;;;;;4994618;28;99972;-67
2024/01/20 00:36:48;;;;;;;47.10;22.88;;;;;;;;;;5000349;28;100613;-67
2024/01/20 00:39:15;;;;;;;45.10;21.38;;;;;;;;;;4995013;28;98639;-67
2024/01/20 00:41:41;;;;;;;47.13;23.63;;;;;;;;;;4994885;28;100247;-67
2024/01/20 00:44:08;;;;;;;56.17;25.52;;;;;;;;;;4999403;28;99882;-67
2024/01/20 00:46:35;;;;;;;47.55;21.67;;;;;;;;;;4997576;28;100405;-67
2024/01/20 00:49:01;;;;;;;55.17;25.65;;;;;;;;;;5000761;28;99915;-67
2024/01/20 00:51:27;;;;;;;46.17;22.15;;;;;;;;;;4994422;28;98527;-67
2024/01/20 00:53:54;;;;;;;53.30;24.30;;;;;;;;;;4996611;28;99576;-67
2024/01/20 00:56:20;;;;;;;52.85;24.75;;;;;;;;;;4994820;28;100247;-67
2024/01/20 00:58:47;;;;;;;60.63;27.00;;;;;;;;;;4996034;28;98524;-67
2024/01/20 01:01:13;;;;;;;59.92;26.55;;;;;;;;;;4997212;28;100397;-67
2024/01/20 01:03:41;;;;;;;61.50;25.95;;;;;;;;;;4998894;28;99586;-67
2024/01/20 01:06:08;;;;;;;55.15;26.10;;;;;;;;;;4995917;28;99429;-67
2024/01/20 01:08:35;;;;;;;58.17;26.88;;;;;;;;;;4997162;28;99828;-67
2024/01/20 01:11:01;;;;;;;58.63;25.52;;;;;;;;;;4991545;28;98540;-67
2024/01/20 01:13:28;;;;;;;66.10;27.23;;;;;;;;;;4995266;28;99419;-67
2024/01/20 01:15:54;;;;;;;61.67;26.15;;;;;;;;;;4991423;28;100553;-67
2024/01/20 01:18:22;;;;;;;66.20;26.80;;;;;;;;;;4994195;28;98826;-67
2024/01/20 01:20:48;;;;;;;57.35;26.83;;;;;;;;;;4998454;28;99650;-67
2024/01/20 01:23:14;;;;;;;67.95;27.02;;;;;;;;;;4991952;28;99928;-67
2024/01/20 01:25:41;;;;;;;68.03;27.60;;;;;;;;;;5002582;28;98872;-67
2024/01/20 01:28:07;;;;;;;58.00;25.50;;;;;;;;;;4996121;28;99856;-67
2024/01/20 01:30:34;;;;;;;63.97;26.80;;;;;;;;;;4997628;28;98599;-67
2024/01/20 01:33:00;;;;;;;68.72;27.05;;;;;;;;;;4999888;28;99559;-67
2024/01/20 01:35:27;;;;;;;60.45;26.35;;;;;;;;;;4995699;28;99499;-67
2024/01/20 01:37:53;;;;;;;69.38;28.00;;;;;;;;;;4998217;28;99223;-67
2024/01/20 01:40:19;;;;;;;65.47;25.58;;;;;;;;;;4998149;28;98990;-67
2024/01/20 01:42:46;;;;;;;55.78;26.67;;;;;;;;;;4998368;28;99796;-67
2024/01/20 01:45:12;;;;;;;64.93;28.30;;;;;;;;;;4992864;28;99358;-67
2024/01/20 01:47:38;;;;;;;72.30;27.02;;;;;;;;;;5000228;28;100058;-68
2024/01/20 01:50:05;;;;;;;64.55;28.80;;;;;;;;;;4996167;28;98663;-67
2024/01/20 01:52:32;;;;;;;67.80;27.52;;;;;;;;;;4998885;28;99532;-67
2024/01/20 01:54:58;;;;;;;75.82;28.15;;;;;;;;;;4994875;28;100068;-68
2024/01/20 01:57:25;;;;;;;69.50;28.52;;;;;;;;;;4994986;28;101502;-67
2024/01/20 01:59:52;;;;;;;70.43;27.38;;;;;;;;;;4994889;28;99459;-67
2024/01/20 02:02:18;;;;;;;63.28;27.83;;;;;;;;;;4992708;28;99096;-68
2024/01/20 02:04:45;;;;;;;69.72;28.40;;;;;;;;;;5000452;28;98585;-67
2024/01/20 02:07:11;;;;;;;68.53;27.15;;;;;;;;;;4990606;28;99236;-67
2024/01/20 02:09:38;;;;;;;67.55;26.63;;;;;;;;;;4997677;28;100864;-67
2024/01/20 02:12:04;;;;;;;63.45;26.88;;;;;;;;;;4995767;28;99944;-67
2024/01/20 02:14:31;;;;;;;71.90;28.73;;;;;;;;;;4991151;28;99679;-67
2024/01/20 02:16:58;;;;;;;67.35;27.83;;;;;;;;;;4990726;28;98759;-67
2024/01/20 02:19:24;;;;;;;63.03;27.85;;;;;;;;;;4994216;28;100425;-67
2024/01/20 02:21:50;;;;;;;68.93;28.00;;;;;;;;;;4988780;28;99839;-67
2024/01/20 02:24:17;;;;;;;63.22;26.60;;;;;;;;;;4992633;28;98566;-67
2024/01/20 02:26:43;;;;;;;59.50;26.35;;;;;;;;;;4995348;28;99234;-67
2024/01/20 02:29:10;;;;;;;62.88;26.02;;;;;;;;;;4992465;28;100087;-67
2024/01/20 02:31:37;;;;;;;64.72;27.27;;;;;;;;;;4998948;28;98626;-67
2024/01/20 02:34:04;;;;;;;66.38;27.35;;;;;;;;;;4994679;28;100665;-67
2024/01/20 02:36:30;;;;;;;67.18;26.65;;;;;;;;;;4994629;28;99962;-67
2024/01/20 02:38:57;;;;;;;58.92;25.10;;;;;;;;;;4996326;28;99302;-67
2024/01/20 02:41:23;;;;;;;63.92;26.73;;;;;;;;;;4991352;28;99506;-67
2024/01/20 02:43:49;;;;;;;70.25;27.77;;;;;;;;;;4998684;28;99043;-67
2024/01/20 02:46:16;;;;;;;66.38;27.05;;;;;;;;;;4994159;28;98747;-67
2024/01/20 02:48:43;;;;;;;62.95;26.58;;;;;;;;;;4994688;28;99546;-67
2024/01/20 02:51:11;;;;;;;62.40;26.48;;;;;;;;;;4992103;28;97858;-67
2024/01/20 02:53:37;;;;;;;59.83;25.88;;;;;;;;;;5004700;28;98450;-67
2024/01/20 02:56:04;;;;;;;65.78;26.35;;;;;;;;;;4998660;28;98702;-68
2024/01/20 02:58:30;;;;;;;63.50;26.30;;;;;;;;;;4996535;28;99340;-67
2024/01/20 03:00:58;;;;;;;60.03;26.38;;;;;;;;;;4996262;28;99490;-67
2024/01/20 03:03:25;;;;;;;70.72;27.70;;;;;;;;;;5001979;28;98623;-67
2024/01/20 03:05:51;;;;;;;71.20;27.20;;;;;;;;;;4997882;28;99275;-67
2024/01/20 03:08:18;;;;;;;65.00;27.23;;;;;;;;;;4998297;28;99565;-67
2024/01/20 03:10:44;;;;;;;64.10;26.30;;;;;;;;;;4994618;28;98612;-67
2024/01/20 03:13:10;;;;;;;61.63;23.95;;;;;;;;;;4999729;28;99306;-67
2024/01/20 03:15:37;;;;;;;52.33;25.08;;;;;;;;;;5000701;28;97814;-67
2024/01/20 03:18:04;;;;;;;60.42;24.38;;;;;;;;;;4996218;28;98728;-67
2024/01/20 03:20:30;;;;;;;71.55;26.05;;;;;;;;;;4998703;28;99814;-67
2024/01/20 03:22:56;;;;;;;61.80;24.30;;;;;;;;;;4996553;28;100059;-67
2024/01/20 03:25:23;;;;;;;65.70;25.48;;;;;;;;;;4998568;28;100326;-67
2024/01/20 03:27:52;;;;;;;56.38;24.75;;;;;;;;;;4999894;28;99602;-67
2024/01/20 03:30:18;;;;;;;62.53;24.08;;;;;;;;;;4991617;28;98418;-67
2024/01/20 03:32:45;;;;;;;59.33;24.38;;;;;;;;;;4998916;28;99282;-67
2024/01/20 03:35:11;;;;;;;56.42;25.17;;;;;;;;;;5002654;28;99117;-67
2024/01/20 03:37:37;;;;;;;63.83;25.35;;;;;;;;;;4998481;28;98507;-67
2024/01/20 03:40:04;;;;;;;62.22;24.80;;;;;;;;;;4999796;28;98776;-67
2024/01/20 03:42:30;;;;;;;64.95;23.70;;;;;;;;;;4994632;28;98601;-68
2024/01/20 03:44:57;;;;;;;62.60;25.23;;;;;;;;;;4997653;28;99294;-67
2024/01/20 03:47:23;;;;;;;66.32;24.48;;;;;;;;;;4995262;28;101186;-67
2024/01/20 03:49:49;;;;;;;55.33;22.80;;;;;;;;;;4994153;28;98630;-67
2024/01/20 03:52:16;;;;;;;64.10;25.45;;;;;;;;;;4999213;28;99210;-67
2024/01/20 03:54:42;;;;;;;57.90;23.73;;;;;;;;;;4996324;28;99949;-67
2024/01/20 03:57:09;;;;;;;65.53;24.73;;;;;;;;;;4999634;28;101582;-68
2024/01/20 03:59:36;;;;;;;55.95;24.17;;;;;;;;;;4998677;28;99651;-67
2024/01/20 04:02:03;;;;;;;58.10;23.92;;;;;;;;;;4996613;28;99224;-67
2024/01/20 04:04:29;;;;;;;55.42;21.52;;;;;;;;;;4992456;28;99376;-67
2024/01/20 04:06:56;;;;;;;56.75;25.00;;;;;;;;;;5000417;28;99518;-67
2024/01/20 04:09:23;;;;;;;61.20;24.38;;;;;;;;;;4997267;28;98613;-67
2024/01/20 04:11:49;;;;;;;54.83;23.45;;;;;;;;;;4996421;28;99286;-67
2024/01/20 04:14:16;;;;;;;60.28;24.52;;;;;;;;;;4996890;28;99443;-67
2024/01/20 04:16:42;;;;;;;58.03;23.90;;;;;;;;;;4993873;28;98809;-67
2024/01/20 04:19:08;;;;;;;60.25;24.48;;;;;;;;;;5000085;28;99264;-67
2024/01/20 04:21:35;;;;;;;57.42;23.33;;;;;;;;;;4998684;28;98756;-67
2024/01/20 04:24:01;;;;;;;64.65;25.33;;;;;;;;;;4997590;28;99293;-67
2024/01/20 04:26:28;;;;;;;70.82;24.23;;;;;;;;;;5000083;28;99797;-67
2024/01/20 04:28:54;;;;;;;61.30;23.70;;;;;;;;;;4997064;28;98363;-67
2024/01/20 04:31:21;;;;;;;50.95;23.20;;;;;;;;;;4989958;28;99344;-67
2024/01/20 04:33:48;;;;;;;56.63;23.20;;;;;;;;;;5002880;28;99547;-67
2024/01/20 04:36:14;;;;;;;58.85;23.45;;;;;;;;;;4995364;28;99689;-67
2024/01/20 04:38:41;;;;;;;58.17;24.08;;;;;;;;;;4999829;28;100020;-67
2024/01/20 04:41:07;;;;;;;61.33;24.35;;;;;;;;;;5001307;28;99504;-67
2024/01/20 04:43:33;;;;;;;64.85;23.92;;;;;;;;;;4996899;28;99524;-67
2024/01/20 04:46:00;;;;;;;57.42;22.95;;;;;;;;;;4996464;28;99979;-67
2024/01/20 04:48:26;;;;;;;62.08;23.67;;;;;;;;;;4996326;28;98565;-67
2024/01/20 04:50:53;;;;;;;57.63;22.05;;;;;;;;;;4995061;28;99831;-68
2024/01/20 04:53:19;;;;;;;66.53;25.30;;;;;;;;;;4992881;28;99358;-67
2024/01/20 04:55:46;;;;;;;51.67;22.70;;;;;;;;;;4998968;28;98917;-67
2024/01/20 04:58:12;;;;;;;60.95;23.33;;;;;;;;;;4997201;28;99348;-67
2024/01/20 05:00:39;;;;;;;52.80;23.05;;;;;;;;;;4994700;28;100236;-67
2024/01/20 05:03:05;;;;;;;61.22;24.55;;;;;;;;;;5000286;28;98620;-68
2024/01/20 05:05:32;;;;;;;74.32;24.23;;;;;;;;;;4996089;28;99297;-67
2024/01/20 05:07:59;;;;;;;59.45;24.17;;;;;;;;;;4996748;28;98630;-67
2024/01/20 05:10:25;;;;;;;62.13;22.30;;;;;;;;;;4992559;28;99496;-68
2024/01/20 05:12:52;;;;;;;64.72;24.45;;;;;;;;;;4993489;28;99347;-67
2024/01/20 05:15:18;;;;;;;57.58;24.23;;;;;;;;;;4990273;28;99226;-67
2024/01/20 05:17:44;;;;;;;59.40;22.65;;;;;;;;;;4996104;28;99675;-68
2024/01/20 05:20:14;;;;;;;58.65;22.92;;;;;;;;;;4995398;28;101980;-67
2024/01/20 05:22:42;;;;;;;52.97;23.90;;;;;;;;;;4998141;28;99402;-68
2024/01/20 05:25:08;;;;;;;62.92;23.13;;;;;;;;;;4993619;28;100197;-67
2024/01/20 05:27:34;;;;;;;53.28;23.00;;;;;;;;;;4998385;28;98827;-67
2024/01/20 05:30:01;;;;;;;53.95;23.77;;;;;;;;;;4993802;28;99883;-67
2024/01/20 05:32:27;;;;;;;59.08;24.17;;;;;;;;;;4992538;28;100299;-67
2024/01/20 05:34:54;;;;;;;56.83;24.85;;;;;;;;;;4996376;28;98998;-67
2024/01/20 05:37:20;;;;;;;58.55;24.77;;;;;;;;;;4995620;28;99602;-67
2024/01/20 05:39:46;;;;;;;59.85;25.05;;;;;;;;;;4997301;28;99525;-67
2024/01/20 05:42:14;;;;;;;70.88;24.60;;;;;;;;;;4997868;28;98766;-67
2024/01/20 05:44:40;;;;;;;68.15;27.85;;;;;;;;;;4994445;28;99520;-67
2024/01/20 05:47:07;;;;;;;62.67;24.55;;;;;;;;;;4993294;28;98601;-67
2024/01/20 05:49:33;;;;;;;62.40;24.08;;;;;;;;;;4997354;28;99778;-67
2024/01/20 05:51:59;;;;;;;57.60;21.55;;;;;;;;;;4990700;28;99706;-67
2024/01/20 05:54:26;;;;;;;65.18;25.33;;;;;;;;;;4993693;28;98506;-67
2024/01/20 05:56:52;;;;;;;57.70;24.33;;;;;;;;;;4994836;28;99227;-67
2024/01/20 05:59:19;;;;;;;56.35;23.40;;;;;;;;;;4994433;28;100043;-68
2024/01/20 06:01:50;;;;;;;59.67;24.17;;;;;;;;;;4994381;28;98889;-68
2024/01/20 06:04:17;;;;;;;61.08;24.85;;;;;;;;;;4995277;28;99713;-67
2024/01/20 06:06:45;;;;;;;58.40;25.45;;;;;;;;;;4994336;28;98768;-68
2024/01/20 06:09:12;;;;;;;57.00;22.67;;;;;;;;;;4996527;28;98874;-68
2024/01/20 06:11:38;;;;;;;63.35;23.77;;;;;;;;;;4991540;28;100014;-68
2024/01/20 06:14:04;;;;;;;57.00;21.10;;;;;;;;;;4994678;28;100796;-68
2024/01/20 06:16:31;;;;;;;57.10;22.55;;;;;;;;;;4992577;28;99920;-68
2024/01/20 06:18:57;;;;;;;51.38;22.15;;;;;;;;;;4994014;28;100101;-67
2024/01/20 06:21:24;;;;;;;67.00;24.08;;;;;;;;;;4990630;28;98649;-68
2024/01/20 06:23:50;;;;;;;56.28;22.55;;;;;;;;;;4992904;28;99747;-68
2024/01/20 06:26:18;;;;;;;61.65;22.70;;;;;;;;;;4991147;28;98995;-67
2024/01/20 06:28:44;;;;;;;60.88;21.85;;;;;;;;;;5002480;28;98564;-68
2024/01/20 06:31:20;;;;;;;57.58;21.65;;;;;;;;;;5004512;28;98725;-67
2024/01/20 06:33:47;;;;;;;55.45;20.25;;;;;;;;;;4997628;28;98602;-68
2024/01/20 06:36:13;;;;;;;48.13;22.35;;;;;;;;;;4998645;28;99227;-67
2024/01/20 06:38:40;;;;;;;51.40;19.92;;;;;;;;;;4993504;28;100215;-67
2024/01/20 06:41:06;;;;;;;53.72;21.90;;;;;;;;;;4998512;28;100018;-68
2024/01/20 06:43:32;;;;;;;56.67;21.88;;;;;;;;;;5001416;28;99280;-67
2024/01/20 06:45:59;;;;;;;54.63;20.40;;;;;;;;;;4995980;28;99809;-68
2024/01/20 06:48:26;;;;;;;45.15;19.02;;;;;;;;;;4995323;28;98809;-68
2024/01/20 06:50:53;;;;;;;57.63;20.08;;;;;;;;;;5004154;28;99236;-67
2024/01/20 06:53:19;;;;;;;50.15;20.58;;;;;;;;;;4996424;28;98578;-68
2024/01/20 06:55:46;;;;;;;44.60;18.85;;;;;;;;;;4995531;28;99566;-68
2024/01/20 06:58:12;;;;;;;45.25;19.02;;;;;;;;;;4995721;28;99548;-69
2024/01/20 07:00:39;;;;;;;44.15;19.40;;;;;;;;;;4997399;28;98927;-68
2024/01/20 07:03:05;;;;;;;60.20;22.35;;;;;;;;;;4999350;28;99351;-68
2024/01/20 07:05:31;;;;;;;44.90;18.75;;;;;;;;;;4998390;28;100611;-68
2024/01/20 07:07:58;;;;;;;44.58;18.38;;;;;;;;;;4999696;28;98849;-68
2024/01/20 07:10:24;;;;;;;51.70;18.73;;;;;;;;;;5002721;28;99258;-67
2024/01/20 07:12:50;;;;;;;51.55;20.23;;;;;;;;;;4992674;28;99158;-68
2024/01/20 07:15:17;;;;;;;62.13;23.58;;;;;;;;;;4997946;28;99272;-68
2024/01/20 07:17:43;;;;;;;43.53;20.40;;;;;;;;;;4997883;28;99610;-68
2024/01/20 07:20:10;;;;;;;52.05;20.95;;;;;;;;;;4998233;28;97879;-68
2024/01/20 07:22:37;;;;;;;60.42;21.63;;;;;;;;;;5000866;28;98896;-68
2024/01/20 07:25:04;;;;;;;46.40;18.48;;;;;;;;;;4998539;28;99496;-67
2024/01/20 07:27:30;;;;;;;46.10;18.38;;;;;;;;;;4996684;28;99223;-67
2024/01/20 07:29:57;;;;;;;45.42;20.73;;;;;;;;;;4995199;28;99948;-67
2024/01/20 07:32:23;;;;;;;53.17;20.17;;;;;;;;;;4997856;28;99568;-68
2024/01/20 07:34:50;;;;;;;46.25;18.50;;;;;;;;;;4996929;28;99311;-69
2024/01/20 07:37:16;;;;;;;39.40;19.60;;;;;;;;;;4994810;28;100329;-68
2024/01/20 07:39:46;;;;;;;55.03;19.90;;;;;;;;;;4996230;28;98731;-69
2024/01/20 07:42:12;;;;;;;52.30;20.77;;;;;;;;;;4993256;28;99204;-69
2024/01/20 07:44:39;;;;;;;51.50;20.63;;;;;;;;;;4996549;28;98008;-69
2024/01/20 07:47:05;;;;;;;45.30;18.90;;;;;;;;;;5000441;28;98515;-69
2024/01/20 07:49:32;;;;;;;46.63;19.33;;;;;;;;;;4990480;28;99552;-69
2024/01/20 07:51:58;;;;;;;48.60;20.55;;;;;;;;;;4998369;28;100316;-69
2024/01/20 07:54:25;;;;;;;44.38;18.42;;;;;;;;;;5001498;28;98641;-69
2024/01/20 07:56:51;;;;;;;49.58;19.75;;;;;;;;;;4996807;28;100903;-69
2024/01/20 07:59:17;;;;;;;46.67;20.25;;;;;;;;;;4998447;28;98562;-69
2024/01/20 08:01:44;;;;;;;53.08;20.02;;;;;;;;;;4998565;28;102223;-69
2024/01/20 08:04:10;;;;;;;43.35;18.35;;;;;;;;;;4999396;28;99600;-68
2024/01/20 08:06:37;;;;;;;52.05;19.98;;;;;;;;;;4997455;28;98574;-69
2024/01/20 08:09:04;;;;;;;46.17;19.40;;;;;;;;;;5000672;28;99192;-69
2024/01/20 08:11:30;;;;;;;45.13;18.75;;;;;;;;;;4996897;28;99919;-68
2024/01/20 08:13:57;;;;;;;41.17;18.17;;;;;;;;;;4996577;28;98613;-68
2024/01/20 08:16:25;;;;;;;45.63;18.23;;;;;;;;;;5002988;28;99421;-68
2024/01/20 08:18:51;;;;;;;51.72;18.80;;;;;;;;;;4994821;28;98733;-69
2024/01/20 08:21:19;;;;;;;40.33;18.15;;;;;;;;;;4998492;28;100526;-69
2024/01/20 08:23:46;;;;;;;39.63;17.63;;;;;;;;;;4996699;28;99839;-68
2024/01/20 08:26:12;;;;;;;39.42;17.70;;;;;;;;;;4996801;28;98875;-69
2024/01/20 08:28:39;;;;;;;42.65;19.35;;;;;;;;;;4993870;28;99270;-69
2024/01/20 08:31:05;;;;;;;42.03;17.58;;;;;;;;;;4999729;28;99808;-68
2024/01/20 08:33:32;;;;;;;34.65;16.75;;;;;;;;;;4994815;28;97917;-68
2024/01/20 08:35:58;;;;;;;30.25;13.55;;;;;;;;;;4994108;28;98673;-68
2024/01/20 08:38:25;;;;;;;38.20;17.65;;;;;;;;;;4997673;28;99542;-69
2024/01/20 08:40:51;;;;;;;37.10;15.68;;;;;;;;;;4996556;28;99342;-68
2024/01/20 08:43:18;;;;;;;38.15;17.33;;;;;;;;;;4995230;28;99473;-68
2024/01/20 08:45:44;;;;;;;40.25;17.42;;;;;;;;;;4995438;28;99327;-68
2024/01/20 08:48:11;;;;;;;39.80;17.80;;;;;;;;;;4992828;28;99596;-69
2024/01/20 08:50:37;;;;;;;40.20;16.73;;;;;;;;;;4995508;28;99409;-69
2024/01/20 08:53:03;;;;;;;36.78;18.20;;;;;;;;;;4995540;28;98502;-68
2024/01/20 08:55:30;;;;;;;43.42;19.05;;;;;;;;;;4991799;28;99529;-69
2024/01/20 08:57:56;;;;;;;36.80;16.33;;;;;;;;;;5000113;28;98770;-68
2024/01/20 09:00:23;;;;;;;47.00;18.77;;;;;;;;;;4999193;28;98762;-68
2024/01/20 09:02:50;;;;;;;38.58;18.95;;;;;;;;;;4993928;28;99908;-68
2024/01/20 09:05:17;;;;;;;39.05;17.50;;;;;;;;;;4989170;28;99445;-68
2024/01/20 09:07:44;;;;;;;41.80;18.23;;;;;;;;;;4997027;28;100417;-68
2024/01/20 09:10:12;;;;;;;42.35;17.70;;;;;;;;;;4999084;28;99812;-68
2024/01/20 09:12:38;;;;;;;40.55;19.05;;;;;;;;;;4996242;28;98799;-68
2024/01/20 09:15:05;;;;;;;38.47;16.88;;;;;;;;;;4994947;28;100216;-68
2024/01/20 09:17:31;;;;;;;43.67;19.90;;;;;;;;;;4995485;28;100385;-68
2024/01/20 09:19:58;;;;;;;40.40;18.63;;;;;;;;;;4999447;28;98823;-69
2024/01/20 09:22:24;;;;;;;44.22;18.60;;;;;;;;;;4994536;28;99075;-68
2024/01/20 09:24:52;;;;;;;43.83;20.05;;;;;;;;;;4999858;28;98503;-68
2024/01/20 09:27:19;;;;;;;33.80;15.75;;;;;;;;;;4997002;28;99559;-68
2024/01/20 09:29:45;;;;;;;33.42;18.23;;;;;;;;;;4995509;28;100343;-68
2024/01/20 09:32:11;;;;;;;40.28;18.58;;;;;;;;;;4996461;28;98615;-68
2024/01/20 09:34:38;;;;;;;38.08;17.27;;;;;;;;;;4999329;28;99246;-70
2024/01/20 09:37:05;;;;;;;47.20;17.73;;;;;;;;;;4993709;28;99587;-68
2024/01/20 09:39:35;;;;;;;42.07;19.43;;;;;;;;;;4987866;28;98932;-69
2024/01/20 09:42:02;;;;;;;38.78;17.77;;;;;;;;;;4990627;28;100465;-69
2024/01/20 09:44:29;;;;;;;39.45;18.85;;;;;;;;;;4994674;28;100254;-69
2024/01/20 09:46:55;;;;;;;36.67;17.90;;;;;;;;;;4995867;28;99228;-69
2024/01/20 09:49:21;;;;;;;34.58;17.08;;;;;;;;;;4997804;28;99435;-70
2024/01/20 09:51:53;;;;;;;37.65;18.85;;;;;;;;;;4993413;28;98560;-70
2024/01/20 09:54:20;;;;;;;45.72;20.17;;;;;;;;;;4996523;28;99220;-70
2024/01/20 09:56:47;;;;;;;36.13;17.83;;;;;;;;;;4997275;28;99503;-70
2024/01/20 09:59:14;;;;;;;42.45;17.77;;;;;;;;;;4997475;28;99047;-69
2024/01/20 10:01:40;;;;;;;43.47;19.80;;;;;;;;;;4994506;28;99409;-69
2024/01/20 10:04:08;;;;;;;36.78;17.80;;;;;;;;;;5000984;28;99611;-69
2024/01/20 10:06:34;;;;;;;40.95;19.42;;;;;;;;;;4995026;28;99208;-70
2024/01/20 10:09:01;;;;;;;37.13;19.23;;;;;;;;;;4997069;28;99666;-69
2024/01/20 10:11:28;;;;;;;35.55;18.42;;;;;;;;;;4998401;28;100688;-69
2024/01/20 10:13:54;;;;;;;48.05;20.63;;;;;;;;;;5001194;28;98588;-69
2024/01/20 10:16:21;;;;;;;36.72;18.40;;;;;;;;;;4998406;28;100230;-69
2024/01/20 10:18:48;;;;;;;40.03;19.70;;;;;;;;;;4996585;28;99320;-70
2024/01/20 10:21:15;;;;;;;37.78;16.55;;;;;;;;;;4998673;28;100204;-72
2024/01/20 10:23:41;;;;;;;34.05;17.83;;;;;;;;;;4997781;28;99841;-71
2024/01/20 10:26:10;;;;;;;31.00;16.73;;;;;;;;;;5002168;28;98837;-73
2024/01/20 10:28:37;;;;;;;35.63;17.58;;;;;;;;;;4993135;28;99504;-73
2024/01/20 10:31:08;;;;;;;34.70;17.20;;;;;;;;;;4997579;28;98618;-73
2024/01/20 10:33:34;;;;;;;;;;;;;;;;;;4996536;28;99224;-70
2024/01/20 10:36:02;;;;;;;35.85;16.90;;;;;;;;;;4993770;28;129978;-70
2024/01/20 10:38:28;;;;;;;30.88;16.08;;;;;;;;;;5000551;28;98603;-71
2024/01/20 10:40:57;;;;;;;28.38;16.00;;;;;;;;;;4994542;28;99209;-71
2024/01/20 10:43:25;;;;;;;31.90;17.58;;;;;;;;;;4997677;28;100584;-70
2024/01/20 10:45:59;;;;;;;29.85;15.60;;;;;;;;;;4997831;28;98766;-70
2024/01/20 10:48:27;;;;;;;30.70;15.77;;;;;;;;;;4999770;28;99251;-72
2024/01/20 10:50:57;;;;;;;29.77;17.02;;;;;;;;;;4995292;28;98523;-73
2024/01/20 10:53:24;;;;;;;34.15;16.92;;;;;;;;;;4993393;28;99682;-73
2024/01/20 10:55:51;;;;;;;29.75;16.63;;;;;;;;;;4999141;28;99545;-72
2024/01/20 10:58:21;;;;;;;36.50;17.83;;;;;;;;;;4995229;28;98822;-73
2024/01/20 11:00:47;;;;;;;35.67;16.73;;;;;;;;;;4996295;28;99256;-72
2024/01/20 11:03:14;;;;;;;31.75;15.90;;;;;;;;;;4997972;28;99839;-72
2024/01/20 11:05:45;;;;;;;34.03;16.92;;;;;;;;;;5001350;28;98605;-68
2024/01/20 11:08:11;;;;;;;28.88;16.88;;;;;;;;;;4997233;28;99383;-68
2024/01/20 11:10:43;;;;;;;28.58;15.18;;;;;;;;;;5002121;28;99785;-67
2024/01/20 11:13:10;;;;;;;29.67;16.02;;;;;;;;;;4994144;28;99222;-68
2024/01/20 11:15:38;;;;;;;30.80;16.90;;;;;;;;;;4994211;28;102831;-68
2024/01/20 11:18:15;;;;;;;33.20;16.30;;;;;;;;;;4991116;28;98955;-68
2024/01/20 11:20:52;;;;;;;30.65;15.23;;;;;;;;;;4995444;28;99903;-68
2024/01/20 11:23:19;;;;;;;29.67;15.80;;;;;;;;;;4998136;28;99837;-68
2024/01/20 11:25:45;;;;;;;27.98;15.63;;;;;;;;;;5001640;28;97968;-68
2024/01/20 11:28:21;;;;;;;27.40;15.65;;;;;;;;;;4996859;28;98786;-69
2024/01/20 11:30:48;;;;;;;29.42;15.70;;;;;;;;;;4998447;28;100025;-68
2024/01/20 11:33:15;;;;;;;28.20;14.38;;;;;;;;;;4992188;28;99697;-68
2024/01/20 11:35:41;;;;;;;30.70;14.55;;;;;;;;;;4997178;28;100798;-68
2024/01/20 11:38:08;;;;;;;23.35;13.75;;;;;;;;;;4994024;28;98562;-68
2024/01/20 11:40:34;;;;;;;25.17;13.82;;;;;;;;;;4995884;28;99266;-68
2024/01/20 11:43:05;;;;;;;22.73;12.93;;;;;;;;;;4995819;28;99814;-69
2024/01/20 11:45:31;;;;;;;;;;;;;;;;;;4991132;28;98681;-68
2024/01/20 11:47:59;;;;;;;25.20;13.43;;;;;;;;;;4999494;28;130028;-69
2024/01/20 11:50:25;;;;;;;25.23;13.90;;;;;;;;;;4999564;28;98854;-68
2024/01/20 11:52:52;;;;;;;22.02;13.02;;;;;;;;;;4998942;28;98637;-68
2024/01/20 11:55:18;;;;;;;21.38;13.45;;;;;;;;;;4995570;28;99570;-68
2024/01/20 11:57:45;;;;;;;28.40;14.65;;;;;;;;;;4996161;28;99266;-68
2024/01/20 12:00:14;;;;;;;23.60;12.60;;;;;;;;;;4994953;28;99964;-68
2024/01/20 12:02:47;;;;;;;24.25;12.60;;;;;;;;;;4993567;28;99485;-68
2024/01/20 12:05:15;;;;;;;24.73;12.95;;;;;;;;;;4996042;28;98522;-67
2024/01/20 12:07:44;;;;;;;21.27;12.52;;;;;;;;;;4992611;28;101350;-70
2024/01/20 12:10:11;;;;;;;22.95;13.68;;;;;;;;;;4998758;28;99563;-68
2024/01/20 12:12:38;;;;;;;20.40;12.82;;;;;;;;;;4995235;28;98590;-68
2024/01/20 12:15:06;;;;;;;22.88;12.75;;;;;;;;;;5001828;28;99475;-73
2024/01/20 12:17:33;;;;;;;20.35;13.05;;;;;;;;;;4995781;28;98831;-73
2024/01/20 12:19:59;;;;;;;18.38;11.95;;;;;;;;;;4994973;28;99217;-72
2024/01/20 12:22:26;;;;;;;22.02;13.00;;;;;;;;;;4995748;28;100766;-72
2024/01/20 12:24:54;;;;;;;19.83;12.02;;;;;;;;;;4986718;28;98986;-72
2024/01/20 12:27:20;;;;;;;18.60;11.32;;;;;;;;;;4993892;28;99340;-72
2024/01/20 12:29:46;;;;;;;24.48;12.80;;;;;;;;;;4998644;28;99427;-72
2024/01/20 12:32:13;;;;;;;21.77;11.90;;;;;;;;;;4996276;28;98636;-73
2024/01/20 12:34:39;;;;;;;18.60;11.48;;;;;;;;;;4995054;28;99261;-75
2024/01/20 12:37:06;;;;;;;23.48;13.90;;;;;;;;;;4997631;28;99479;-73
2024/01/20 12:39:34;;;;;;;16.95;10.82;;;;;;;;;;4998986;28;101197;-73
2024/01/20 12:42:00;;;;;;;17.05;11.63;;;;;;;;;;4996497;28;100066;-73
2024/01/20 12:44:27;;;;;;;15.95;10.70;;;;;;;;;;4994262;28;98517;-73
2024/01/20 12:46:55;;;;;;;19.75;11.85;;;;;;;;;;4996891;28;100506;-70
2024/01/20 12:49:21;;;;;;;17.58;11.45;;;;;;;;;;4999589;28;99638;-71
2024/01/20 12:51:48;;;;;;;20.73;12.80;;;;;;;;;;4998334;28;98588;-71
2024/01/20 12:54:15;;;;;;;20.77;11.38;;;;;;;;;;4994712;28;99601;-70
2024/01/20 12:56:41;;;;;;;19.02;11.52;;;;;;;;;;4993420;28;99720;-72
2024/01/20 12:59:08;;;;;;;20.77;12.23;;;;;;;;;;4998287;28;98651;-72
2024/01/20 13:01:34;;;;;;;19.85;12.40;;;;;;;;;;4998109;28;99502;-70
2024/01/20 13:04:00;;;;;;;19.77;12.82;;;;;;;;;;4989563;28;97806;-70
2024/01/20 13:06:30;;;;;;;20.73;12.27;;;;;;;;;;4998252;28;99613;-71
2024/01/20 13:08:56;;;;;;;17.98;11.75;;;;;;;;;;4996401;28;99468;-70
2024/01/20 13:11:23;;;;;;;19.75;12.55;;;;;;;;;;4996839;28;99342;-70
2024/01/20 13:13:49;;;;;;;23.40;12.70;;;;;;;;;;4997697;28;99965;-70
2024/01/20 13:16:16;;;;;;;22.40;13.40;;;;;;;;;;4995650;28;99737;-70
2024/01/20 13:18:42;;;;;;;25.70;14.10;;;;;;;;;;4992927;28;98532;-70
2024/01/20 13:21:09;;;;;;;26.52;13.82;;;;;;;;;;4998349;28;99072;-70
2024/01/20 13:23:36;;;;;;;28.48;14.02;;;;;;;;;;4984690;28;100067;-68
2024/01/20 13:26:02;;;;;;;26.90;13.25;;;;;;;;;;4993261;28;99573;-67
2024/01/20 13:28:30;;;;;;;28.73;14.82;;;;;;;;;;4996503;28;99147;-68
2024/01/20 13:30:56;;;;;;;24.35;13.23;;;;;;;;;;4997135;28;98631;-68
2024/01/20 13:33:24;;;;;;;21.83;11.73;;;;;;;;;;4995389;28;99465;-67
2024/01/20 13:35:52;;;;;;;17.40;10.23;;;;;;;;;;4991082;28;100496;-68
2024/01/20 13:38:19;;;;;;;18.05;11.40;;;;;;;;;;5000068;28;98960;-68
2024/01/20 13:40:46;;;;;;;19.52;10.98;;;;;;;;;;4999607;28;99319;-68
2024/01/20 13:43:12;;;;;;;19.48;11.77;;;;;;;;;;4994920;28;98771;-68
2024/01/20 13:45:39;;;;;;;19.02;11.45;;;;;;;;;;5001964;28;99206;-68
2024/01/20 13:48:06;;;;;;;17.27;11.68;;;;;;;;;;4999420;28;99688;-69
2024/01/20 13:50:32;;;;;;;21.05;11.57;;;;;;;;;;4992567;28;98498;-68
2024/01/20 13:52:59;;;;;;;20.63;11.75;;;;;;;;;;4998145;28;99225;-69
2024/01/20 13:55:25;;;;;;;19.77;11.48;;;;;;;;;;4995327;28;99755;-68
2024/01/20 13:57:52;;;;;;;21.05;12.48;;;;;;;;;;4995735;28;98492;-68
2024/01/20 14:00:18;;;;;;;22.50;12.32;;;;;;;;;;4990892;28;99829;-68
2024/01/20 14:02:46;;;;;;;23.45;13.23;;;;;;;;;;4995381;28;99525;-66
2024/01/20 14:05:13;;;;;;;20.50;11.68;;;;;;;;;;4992477;28;99390;-66
2024/01/20 14:07:40;;;;;;;19.38;11.98;;;;;;;;;;4995651;28;99352;-68
2024/01/20 14:10:07;;;;;;;29.90;11.98;;;;;;;;;;4996511;28;98769;-69
2024/01/20 14:12:33;;;;;;;23.67;11.85;;;;;;;;;;4992399;28;99514;-68
2024/01/20 14:14:59;;;;;;;20.83;11.95;;;;;;;;;;4994917;28;99493;-68